sensor_id;sensor_type;location;lat;lon;timestamp;P1;P2;P0
57497;PMS5003;43336;51.416;-0.810;2023-04-24T00:01:46;11.00;10.67;6.33
57497;PMS5003;43336;51.416;-0.810;2023-04-24T00:04:47;11.00;9.67;8.00
57497;PMS5003;43336;51.416;-0.810;2023-04-24T00:07:49;8.67;8.67;7.00
57497;PMS5003;43336;51.416;-0.810;2023-04-24T00:10:53;10.33;10.33;7.33
57497;PMS5003;43336;51.416;-0.810;2023-04-24T00:13:53;10.33;10.33;7.33
57497;PMS5003;43336;51.416;-0.810;2023-04-24T00:16:54;10.00;10.00;6.33
57497;PMS5003;43336;51.416;-0.810;2023-04-24T00:19:55;12.67;12.00;9.33
57497;PMS5003;43336;51.416;-0.810;2023-04-24T00:22:58;10.33;10.33;7.00
57497;PMS5003;43336;51.416;-0.810;2023-04-24T00:25:59;8.33;8.33;6.67
57497;PMS5003;43336;51.416;-0.810;2023-04-24T00:29:00;10.00;10.00;7.67
57497;PMS5003;43336;51.416;-0.810;2023-04-24T00:32:00;8.00;8.00;6.33
57497;PMS5003;43336;51.416;-0.810;2023-04-24T00:35:01;10.67;10.00;8.33
57497;PMS5003;43336;51.416;-0.810;2023-04-24T00:38:02;15.00;11.33;7.00
57497;PMS5003;43336;51.416;-0.810;2023-04-24T00:41:03;9.67;9.00;5.00
57497;PMS5003;43336;51.416;-0.810;2023-04-24T00:44:04;12.00;12.00;7.00
57497;PMS5003;43336;51.416;-0.810;2023-04-24T00:47:04;9.00;9.00;7.33
57497;PMS5003;43336;51.416;-0.810;2023-04-24T00:50:06;10.00;10.00;6.67
57497;PMS5003;43336;51.416;-0.810;2023-04-24T00:53:07;10.00;10.00;8.00
57497;PMS5003;43336;51.416;-0.810;2023-04-24T00:56:08;8.00;8.00;6.67
57497;PMS5003;43336;51.416;-0.810;2023-04-24T00:59:08;11.00;11.00;6.33
57497;PMS5003;43336;51.416;-0.810;2023-04-24T01:02:09;10.33;10.33;8.00
57497;PMS5003;43336;51.416;-0.810;2023-04-24T01:05:16;9.00;8.00;6.00
57497;PMS5003;43336;51.416;-0.810;2023-04-24T01:08:17;14.00;13.00;7.67
57497;PMS5003;43336;51.416;-0.810;2023-04-24T01:11:19;10.00;10.00;6.67
57497;PMS5003;43336;51.416;-0.810;2023-04-24T01:14:21;8.00;8.00;5.33
57497;PMS5003;43336;51.416;-0.810;2023-04-24T01:17:23;9.67;9.67;6.33
57497;PMS5003;43336;51.416;-0.810;2023-04-24T01:20:23;8.33;8.00;5.33
57497;PMS5003;43336;51.416;-0.810;2023-04-24T01:23:26;8.33;8.33;4.00
57497;PMS5003;43336;51.416;-0.810;2023-04-24T01:26:27;11.33;10.00;7.00
57497;PMS5003;43336;51.416;-0.810;2023-04-24T01:29:28;9.33;9.33;6.00
57497;PMS5003;43336;51.416;-0.810;2023-04-24T01:32:28;10.33;10.33;7.00
57497;PMS5003;43336;51.416;-0.810;2023-04-24T01:35:29;8.67;8.67;6.33
57497;PMS5003;43336;51.416;-0.810;2023-04-24T01:38:30;11.67;11.00;7.00
57497;PMS5003;43336;51.416;-0.810;2023-04-24T01:41:31;10.00;9.33;7.33
57497;PMS5003;43336;51.416;-0.810;2023-04-24T01:44:33;8.33;8.33;6.33
57497;PMS5003;43336;51.416;-0.810;2023-04-24T01:47:34;13.00;13.00;8.67
57497;PMS5003;43336;51.416;-0.810;2023-04-24T01:50:35;12.00;12.00;7.00
57497;PMS5003;43336;51.416;-0.810;2023-04-24T01:53:36;11.00;10.33;7.67
57497;PMS5003;43336;51.416;-0.810;2023-04-24T01:56:36;8.33;8.33;5.33
57497;PMS5003;43336;51.416;-0.810;2023-04-24T01:59:42;9.33;8.00;3.00
57497;PMS5003;43336;51.416;-0.810;2023-04-24T02:02:42;9.33;8.67;6.33
57497;PMS5003;43336;51.416;-0.810;2023-04-24T02:05:44;11.00;11.00;7.00
57497;PMS5003;43336;51.416;-0.810;2023-04-24T02:08:45;9.33;9.33;8.00
57497;PMS5003;43336;51.416;-0.810;2023-04-24T02:11:46;8.00;8.00;6.67
57497;PMS5003;43336;51.416;-0.810;2023-04-24T02:14:46;9.33;8.67;6.67
57497;PMS5003;43336;51.416;-0.810;2023-04-24T02:17:47;12.33;9.33;6.33
57497;PMS5003;43336;51.416;-0.810;2023-04-24T02:20:48;8.33;8.33;7.00
57497;PMS5003;43336;51.416;-0.810;2023-04-24T02:23:49;9.00;8.67;6.67
57497;PMS5003;43336;51.416;-0.810;2023-04-24T02:26:49;10.00;10.00;8.00
57497;PMS5003;43336;51.416;-0.810;2023-04-24T02:29:50;11.00;11.00;7.00
57497;PMS5003;43336;51.416;-0.810;2023-04-24T02:32:51;11.33;10.00;7.67
57497;PMS5003;43336;51.416;-0.810;2023-04-24T02:35:52;9.00;9.00;5.67
57497;PMS5003;43336;51.416;-0.810;2023-04-24T02:38:52;10.00;10.00;7.33
57497;PMS5003;43336;51.416;-0.810;2023-04-24T02:41:53;9.00;9.00;7.33
57497;PMS5003;43336;51.416;-0.810;2023-04-24T02:44:53;9.67;9.33;8.00
57497;PMS5003;43336;51.416;-0.810;2023-04-24T02:47:54;9.67;9.00;5.67
57497;PMS5003;43336;51.416;-0.810;2023-04-24T02:50:55;10.33;10.00;7.00
57497;PMS5003;43336;51.416;-0.810;2023-04-24T02:53:56;8.33;8.33;6.67
57497;PMS5003;43336;51.416;-0.810;2023-04-24T02:56:57;9.00;9.00;6.00
57497;PMS5003;43336;51.416;-0.810;2023-04-24T02:59:58;8.33;8.33;5.67
57497;PMS5003;43336;51.416;-0.810;2023-04-24T03:02:58;10.00;9.00;5.67
57497;PMS5003;43336;51.416;-0.810;2023-04-24T03:05:59;9.67;9.67;7.00
57497;PMS5003;43336;51.416;-0.810;2023-04-24T03:08:59;9.33;9.33;7.33
57497;PMS5003;43336;51.416;-0.810;2023-04-24T03:12:00;10.67;10.67;7.33
57497;PMS5003;43336;51.416;-0.810;2023-04-24T03:15:01;10.33;10.00;7.33
57497;PMS5003;43336;51.416;-0.810;2023-04-24T03:18:02;10.33;10.33;5.67
57497;PMS5003;43336;51.416;-0.810;2023-04-24T03:21:03;9.00;9.00;6.00
57497;PMS5003;43336;51.416;-0.810;2023-04-24T03:24:04;7.00;7.00;6.00
57497;PMS5003;43336;51.416;-0.810;2023-04-24T03:27:04;9.67;8.33;6.00
57497;PMS5003;43336;51.416;-0.810;2023-04-24T03:30:08;9.67;9.67;5.67
57497;PMS5003;43336;51.416;-0.810;2023-04-24T03:33:09;9.33;9.00;7.00
57497;PMS5003;43336;51.416;-0.810;2023-04-24T03:36:10;10.67;10.67;8.00
57497;PMS5003;43336;51.416;-0.810;2023-04-24T03:39:11;9.00;9.00;7.00
57497;PMS5003;43336;51.416;-0.810;2023-04-24T03:42:12;10.67;8.33;7.00
57497;PMS5003;43336;51.416;-0.810;2023-04-24T03:45:12;11.33;11.33;7.67
57497;PMS5003;43336;51.416;-0.810;2023-04-24T03:48:13;10.00;10.00;7.00
57497;PMS5003;43336;51.416;-0.810;2023-04-24T03:51:14;9.00;9.00;7.00
57497;PMS5003;43336;51.416;-0.810;2023-04-24T03:54:14;6.00;6.00;4.33
57497;PMS5003;43336;51.416;-0.810;2023-04-24T03:57:15;10.00;9.00;7.00
57497;PMS5003;43336;51.416;-0.810;2023-04-24T04:00:16;8.67;8.67;6.33
57497;PMS5003;43336;51.416;-0.810;2023-04-24T04:03:16;11.33;11.33;6.00
57497;PMS5003;43336;51.416;-0.810;2023-04-24T04:06:19;9.00;8.67;6.67
57497;PMS5003;43336;51.416;-0.810;2023-04-24T04:09:21;7.33;7.33;5.33
57497;PMS5003;43336;51.416;-0.810;2023-04-24T04:12:22;8.00;8.00;6.33
57497;PMS5003;43336;51.416;-0.810;2023-04-24T04:15:23;11.00;11.00;7.00
57497;PMS5003;43336;51.416;-0.810;2023-04-24T04:18:23;8.00;8.00;5.33
57497;PMS5003;43336;51.416;-0.810;2023-04-24T04:21:24;9.33;9.33;7.33
57497;PMS5003;43336;51.416;-0.810;2023-04-24T04:24:25;9.00;9.00;7.00
57497;PMS5003;43336;51.416;-0.810;2023-04-24T04:27:26;7.67;7.67;6.00
57497;PMS5003;43336;51.416;-0.810;2023-04-24T04:30:28;9.00;9.00;7.00
57497;PMS5003;43336;51.416;-0.810;2023-04-24T04:33:32;9.00;9.00;7.00
57497;PMS5003;43336;51.416;-0.810;2023-04-24T04:36:33;6.00;6.00;5.33
57497;PMS5003;43336;51.416;-0.810;2023-04-24T04:39:36;8.33;8.00;5.33
57497;PMS5003;43336;51.416;-0.810;2023-04-24T04:42:37;8.33;8.33;5.33
57497;PMS5003;43336;51.416;-0.810;2023-04-24T04:45:40;6.33;6.33;3.33
57497;PMS5003;43336;51.416;-0.810;2023-04-24T04:48:43;9.00;9.00;7.67
57497;PMS5003;43336;51.416;-0.810;2023-04-24T04:51:44;10.00;9.33;4.67
57497;PMS5003;43336;51.416;-0.810;2023-04-24T04:54:45;10.33;10.00;7.00
57497;PMS5003;43336;51.416;-0.810;2023-04-24T04:57:46;9.33;9.00;6.67
57497;PMS5003;43336;51.416;-0.810;2023-04-24T05:00:47;8.67;8.67;6.67
57497;PMS5003;43336;51.416;-0.810;2023-04-24T05:03:48;8.33;8.33;7.00
57497;PMS5003;43336;51.416;-0.810;2023-04-24T05:06:49;7.67;7.67;6.00
57497;PMS5003;43336;51.416;-0.810;2023-04-24T05:09:51;9.00;9.00;6.33
57497;PMS5003;43336;51.416;-0.810;2023-04-24T05:12:52;8.67;8.67;7.00
57497;PMS5003;43336;51.416;-0.810;2023-04-24T05:15:53;9.33;9.33;7.00
57497;PMS5003;43336;51.416;-0.810;2023-04-24T05:18:54;10.00;9.33;7.00
57497;PMS5003;43336;51.416;-0.810;2023-04-24T05:21:54;8.33;8.33;6.67
57497;PMS5003;43336;51.416;-0.810;2023-04-24T05:24:55;11.33;11.33;8.00
57497;PMS5003;43336;51.416;-0.810;2023-04-24T05:27:56;7.00;7.00;6.00
57497;PMS5003;43336;51.416;-0.810;2023-04-24T05:30:57;9.33;9.33;5.67
57497;PMS5003;43336;51.416;-0.810;2023-04-24T05:33:59;9.67;9.67;7.00
57497;PMS5003;43336;51.416;-0.810;2023-04-24T05:37:00;8.33;8.33;7.33
57497;PMS5003;43336;51.416;-0.810;2023-04-24T05:40:00;7.33;7.33;4.67
57497;PMS5003;43336;51.416;-0.810;2023-04-24T05:43:01;7.00;7.00;6.00
57497;PMS5003;43336;51.416;-0.810;2023-04-24T05:46:02;8.00;8.00;6.33
57497;PMS5003;43336;51.416;-0.810;2023-04-24T05:49:03;8.00;7.67;6.00
57497;PMS5003;43336;51.416;-0.810;2023-04-24T05:52:03;9.33;9.00;6.67
57497;PMS5003;43336;51.416;-0.810;2023-04-24T05:55:06;9.67;9.67;6.67
57497;PMS5003;43336;51.416;-0.810;2023-04-24T05:58:07;9.67;9.67;5.00
57497;PMS5003;43336;51.416;-0.810;2023-04-24T06:01:08;8.00;8.00;5.33
57497;PMS5003;43336;51.416;-0.810;2023-04-24T06:04:09;9.00;9.00;7.00
57497;PMS5003;43336;51.416;-0.810;2023-04-24T06:07:10;8.00;8.00;6.33
57497;PMS5003;43336;51.416;-0.810;2023-04-24T06:10:11;9.00;9.00;6.33
57497;PMS5003;43336;51.416;-0.810;2023-04-24T06:13:12;7.67;7.67;6.00
57497;PMS5003;43336;51.416;-0.810;2023-04-24T06:16:13;7.67;7.00;6.00
57497;PMS5003;43336;51.416;-0.810;2023-04-24T06:19:14;8.00;7.67;4.67
57497;PMS5003;43336;51.416;-0.810;2023-04-24T06:22:14;6.67;6.67;4.33
57497;PMS5003;43336;51.416;-0.810;2023-04-24T06:25:30;5.00;5.00;3.00
57497;PMS5003;43336;51.416;-0.810;2023-04-24T06:28:32;6.67;6.67;4.33
57497;PMS5003;43336;51.416;-0.810;2023-04-24T06:31:32;8.67;8.67;5.67
57497;PMS5003;43336;51.416;-0.810;2023-04-24T06:34:37;7.00;7.00;6.00
57497;PMS5003;43336;51.416;-0.810;2023-04-24T06:37:41;5.33;5.33;3.67
57497;PMS5003;43336;51.416;-0.810;2023-04-24T06:40:43;7.00;7.00;6.00
57497;PMS5003;43336;51.416;-0.810;2023-04-24T06:43:43;6.00;6.00;4.33
57497;PMS5003;43336;51.416;-0.810;2023-04-24T06:46:45;8.00;8.00;5.00
57497;PMS5003;43336;51.416;-0.810;2023-04-24T06:49:45;8.00;8.00;6.67
57497;PMS5003;43336;51.416;-0.810;2023-04-24T06:52:47;8.67;8.00;6.00
57497;PMS5003;43336;51.416;-0.810;2023-04-24T06:55:48;6.00;6.00;4.00
57497;PMS5003;43336;51.416;-0.810;2023-04-24T06:58:49;7.00;7.00;5.67
57497;PMS5003;43336;51.416;-0.810;2023-04-24T07:01:49;8.00;8.00;6.33
57497;PMS5003;43336;51.416;-0.810;2023-04-24T07:04:51;2.67;2.67;1.00
57497;PMS5003;43336;51.416;-0.810;2023-04-24T07:07:53;7.67;7.67;5.00
57497;PMS5003;43336;51.416;-0.810;2023-04-24T07:10:53;7.33;7.00;4.67
57497;PMS5003;43336;51.416;-0.810;2023-04-24T07:13:54;7.33;7.33;5.33
57497;PMS5003;43336;51.416;-0.810;2023-04-24T07:20:20;8.67;8.67;6.00
57497;PMS5003;43336;51.416;-0.810;2023-04-24T07:23:22;9.00;9.00;6.00
57497;PMS5003;43336;51.416;-0.810;2023-04-24T07:26:23;9.67;9.33;7.00
57497;PMS5003;43336;51.416;-0.810;2023-04-24T07:29:27;83.75;68.50;53.25
57497;PMS5003;43336;51.416;-0.810;2023-04-24T07:32:28;54.75;46.75;33.75
57497;PMS5003;43336;51.416;-0.810;2023-04-24T07:35:29;56.75;47.75;33.75
57497;PMS5003;43336;51.416;-0.810;2023-04-24T07:38:30;51.50;44.50;34.00
57497;PMS5003;43336;51.416;-0.810;2023-04-24T07:41:35;52.75;45.00;32.75
57497;PMS5003;43336;51.416;-0.810;2023-04-24T07:44:38;54.75;47.50;33.50
57497;PMS5003;43336;51.416;-0.810;2023-04-24T07:47:39;49.25;43.00;31.00
57497;PMS5003;43336;51.416;-0.810;2023-04-24T07:50:41;49.25;42.50;31.25
57497;PMS5003;43336;51.416;-0.810;2023-04-24T07:53:42;40.25;36.75;26.75
57497;PMS5003;43336;51.416;-0.810;2023-04-24T07:56:43;21.33;21.33;11.33
57497;PMS5003;43336;51.416;-0.810;2023-04-24T07:59:45;18.33;16.67;11.00
57497;PMS5003;43336;51.416;-0.810;2023-04-24T08:02:45;19.33;19.00;11.67
57497;PMS5003;43336;51.416;-0.810;2023-04-24T08:05:46;15.33;15.33;10.33
57497;PMS5003;43336;51.416;-0.810;2023-04-24T08:08:47;15.00;14.33;8.67
57497;PMS5003;43336;51.416;-0.810;2023-04-24T08:11:48;16.67;16.67;11.33
57497;PMS5003;43336;51.416;-0.810;2023-04-24T08:14:49;15.00;15.00;10.00
57497;PMS5003;43336;51.416;-0.810;2023-04-24T08:17:50;15.00;14.00;9.00
57497;PMS5003;43336;51.416;-0.810;2023-04-24T08:20:50;17.33;16.00;9.67
57497;PMS5003;43336;51.416;-0.810;2023-04-24T08:23:51;12.33;12.00;8.00
57497;PMS5003;43336;51.416;-0.810;2023-04-24T08:26:52;13.00;13.00;8.00
57497;PMS5003;43336;51.416;-0.810;2023-04-24T08:29:54;15.67;15.67;8.00
57497;PMS5003;43336;51.416;-0.810;2023-04-24T08:32:55;12.00;12.00;8.00
57497;PMS5003;43336;51.416;-0.810;2023-04-24T08:35:57;18.00;16.67;8.33
57497;PMS5003;43336;51.416;-0.810;2023-04-24T08:38:57;15.00;15.00;9.67
57497;PMS5003;43336;51.416;-0.810;2023-04-24T08:41:58;15.00;14.00;8.33
57497;PMS5003;43336;51.416;-0.810;2023-04-24T08:45:05;13.33;13.33;8.00
57497;PMS5003;43336;51.416;-0.810;2023-04-24T08:48:07;14.67;14.00;8.67
57497;PMS5003;43336;51.416;-0.810;2023-04-24T08:51:07;15.00;14.00;8.67
57497;PMS5003;43336;51.416;-0.810;2023-04-24T08:54:09;13.33;13.33;9.33
57497;PMS5003;43336;51.416;-0.810;2023-04-24T08:57:11;12.33;11.00;8.67
57497;PMS5003;43336;51.416;-0.810;2023-04-24T09:00:15;13.00;13.00;8.00
57497;PMS5003;43336;51.416;-0.810;2023-04-24T09:03:16;11.67;10.67;7.00
57497;PMS5003;43336;51.416;-0.810;2023-04-24T09:06:18;13.33;13.33;7.67
57497;PMS5003;43336;51.416;-0.810;2023-04-24T09:09:20;15.67;14.67;9.33
57497;PMS5003;43336;51.416;-0.810;2023-04-24T09:12:22;16.00;14.33;7.67
57497;PMS5003;43336;51.416;-0.810;2023-04-24T09:15:23;13.00;12.00;8.00
57497;PMS5003;43336;51.416;-0.810;2023-04-24T09:18:26;10.33;10.33;8.00
57497;PMS5003;43336;51.416;-0.810;2023-04-24T09:21:32;9.67;9.67;7.00
57497;PMS5003;43336;51.416;-0.810;2023-04-24T09:24:49;12.33;12.33;7.33
57497;PMS5003;43336;51.416;-0.810;2023-04-24T09:47:19;8.00;8.00;6.00
57497;PMS5003;43336;51.416;-0.810;2023-04-24T09:50:20;7.67;7.67;6.00
57497;PMS5003;43336;51.416;-0.810;2023-04-24T09:53:25;12.00;10.67;7.00
57497;PMS5003;43336;51.416;-0.810;2023-04-24T09:56:44;8.00;8.00;7.00
57497;PMS5003;43336;51.416;-0.810;2023-04-24T09:59:47;7.33;7.33;6.00
57497;PMS5003;43336;51.416;-0.810;2023-04-24T10:02:53;9.00;9.00;5.67
57497;PMS5003;43336;51.416;-0.810;2023-04-24T10:06:03;5.33;5.33;4.00
57497;PMS5003;43336;51.416;-0.810;2023-04-24T10:09:10;9.00;8.33;5.33
57497;PMS5003;43336;51.416;-0.810;2023-04-24T10:12:13;9.00;9.00;6.00
57497;PMS5003;43336;51.416;-0.810;2023-04-24T10:15:15;8.67;8.67;7.33
57497;PMS5003;43336;51.416;-0.810;2023-04-24T10:18:21;11.67;11.67;8.00
57497;PMS5003;43336;51.416;-0.810;2023-04-24T10:21:22;7.00;7.00;4.00
57497;PMS5003;43336;51.416;-0.810;2023-04-24T10:24:23;8.33;8.33;5.33
57497;PMS5003;43336;51.416;-0.810;2023-04-24T10:27:25;8.00;8.00;7.00
57497;PMS5003;43336;51.416;-0.810;2023-04-24T10:30:29;8.33;8.00;5.33
57497;PMS5003;43336;51.416;-0.810;2023-04-24T10:33:35;7.33;7.33;5.00
57497;PMS5003;43336;51.416;-0.810;2023-04-24T10:36:53;8.33;8.33;4.67
57497;PMS5003;43336;51.416;-0.810;2023-04-24T10:43:07;8.00;8.00;5.33
57497;PMS5003;43336;51.416;-0.810;2023-04-24T10:46:25;7.67;7.67;6.33
57497;PMS5003;43336;51.416;-0.810;2023-04-24T10:49:31;7.67;7.67;5.00
57497;PMS5003;43336;51.416;-0.810;2023-04-24T10:52:45;8.67;8.67;5.67
57497;PMS5003;43336;51.416;-0.810;2023-04-24T10:56:07;6.00;6.00;5.00
57497;PMS5003;43336;51.416;-0.810;2023-04-24T10:59:21;7.67;7.67;4.67
57497;PMS5003;43336;51.416;-0.810;2023-04-24T11:09:06;7.67;7.67;5.33
57497;PMS5003;43336;51.416;-0.810;2023-04-24T11:12:23;6.00;6.00;3.67
57497;PMS5003;43336;51.416;-0.810;2023-04-24T11:18:52;8.00;8.00;6.33
57497;PMS5003;43336;51.416;-0.810;2023-04-24T11:22:02;7.00;6.67;4.67
57497;PMS5003;43336;51.416;-0.810;2023-04-24T11:25:15;6.67;6.67;5.33
57497;PMS5003;43336;51.416;-0.810;2023-04-24T11:28:16;8.00;8.00;5.33
57497;PMS5003;43336;51.416;-0.810;2023-04-24T11:31:34;7.33;7.33;4.33
57497;PMS5003;43336;51.416;-0.810;2023-04-24T11:34:38;6.67;6.67;5.33
57497;PMS5003;43336;51.416;-0.810;2023-04-24T11:37:54;5.00;5.00;3.00
57497;PMS5003;43336;51.416;-0.810;2023-04-24T11:41:09;5.00;4.33;3.33
57497;PMS5003;43336;51.416;-0.810;2023-04-24T11:44:10;6.33;6.33;4.67
57497;PMS5003;43336;51.416;-0.810;2023-04-24T11:47:28;7.33;7.33;5.33
57497;PMS5003;43336;51.416;-0.810;2023-04-24T11:50:48;4.67;4.67;3.00
57497;PMS5003;43336;51.416;-0.810;2023-04-24T11:57:14;5.00;5.00;4.67
57497;PMS5003;43336;51.416;-0.810;2023-04-24T12:00:21;4.33;4.33;3.00
57497;PMS5003;43336;51.416;-0.810;2023-04-24T12:03:31;6.00;6.00;3.67
57497;PMS5003;43336;51.416;-0.810;2023-04-24T12:06:35;6.33;6.33;5.00
57497;PMS5003;43336;51.416;-0.810;2023-04-24T12:09:43;6.00;6.00;3.33
57497;PMS5003;43336;51.416;-0.810;2023-04-24T12:12:46;5.00;5.00;3.00
57497;PMS5003;43336;51.416;-0.810;2023-04-24T12:18:58;5.33;5.33;4.33
57497;PMS5003;43336;51.416;-0.810;2023-04-24T12:22:05;5.00;5.00;4.00
57497;PMS5003;43336;51.416;-0.810;2023-04-24T12:25:06;7.33;7.33;5.00
57497;PMS5003;43336;51.416;-0.810;2023-04-24T12:28:11;6.00;5.33;4.00
57497;PMS5003;43336;51.416;-0.810;2023-04-24T12:31:13;4.33;4.33;3.00
57497;PMS5003;43336;51.416;-0.810;2023-04-24T12:34:19;7.00;7.00;4.67
57497;PMS5003;43336;51.416;-0.810;2023-04-24T12:43:53;6.67;6.67;4.67
57497;PMS5003;43336;51.416;-0.810;2023-04-24T12:46:55;4.33;4.33;3.67
57497;PMS5003;43336;51.416;-0.810;2023-04-24T12:49:56;5.00;5.00;4.00
57497;PMS5003;43336;51.416;-0.810;2023-04-24T12:52:59;3.33;3.33;3.33
57497;PMS5003;43336;51.416;-0.810;2023-04-24T12:56:06;5.00;5.00;3.33
57497;PMS5003;43336;51.416;-0.810;2023-04-24T12:59:07;4.67;4.67;3.67
57497;PMS5003;43336;51.416;-0.810;2023-04-24T13:02:09;6.33;6.33;5.33
57497;PMS5003;43336;51.416;-0.810;2023-04-24T13:05:13;8.00;8.00;4.33
57497;PMS5003;43336;51.416;-0.810;2023-04-24T13:08:15;5.33;5.33;4.33
57497;PMS5003;43336;51.416;-0.810;2023-04-24T13:11:34;4.67;4.67;4.00
57497;PMS5003;43336;51.416;-0.810;2023-04-24T13:14:36;7.00;7.00;6.00
57497;PMS5003;43336;51.416;-0.810;2023-04-24T13:17:37;5.33;5.33;4.00
57497;PMS5003;43336;51.416;-0.810;2023-04-24T13:20:42;5.00;5.00;4.67
57497;PMS5003;43336;51.416;-0.810;2023-04-24T13:23:42;4.67;4.67;3.33
57497;PMS5003;43336;51.416;-0.810;2023-04-24T13:26:43;6.33;6.33;5.33
57497;PMS5003;43336;51.416;-0.810;2023-04-24T13:29:45;6.67;6.00;5.00
57497;PMS5003;43336;51.416;-0.810;2023-04-24T13:32:46;5.67;5.67;4.67
57497;PMS5003;43336;51.416;-0.810;2023-04-24T13:35:48;5.67;5.67;4.00
57497;PMS5003;43336;51.416;-0.810;2023-04-24T13:38:50;5.67;5.67;4.33
57497;PMS5003;43336;51.416;-0.810;2023-04-24T13:41:51;5.67;5.67;4.00
57497;PMS5003;43336;51.416;-0.810;2023-04-24T13:44:52;4.33;4.33;4.33
57497;PMS5003;43336;51.416;-0.810;2023-04-24T13:47:54;6.00;6.00;4.33
57497;PMS5003;43336;51.416;-0.810;2023-04-24T13:50:55;4.67;4.67;4.33
57497;PMS5003;43336;51.416;-0.810;2023-04-24T13:57:05;5.00;5.00;3.33
57497;PMS5003;43336;51.416;-0.810;2023-04-24T14:00:30;5.67;5.67;4.33
57497;PMS5003;43336;51.416;-0.810;2023-04-24T18:56:01;3.67;3.67;2.00
57497;PMS5003;43336;51.416;-0.810;2023-04-24T18:59:02;3.00;3.00;2.00
57497;PMS5003;43336;51.416;-0.810;2023-04-24T19:02:03;5.67;5.67;4.67
57497;PMS5003;43336;51.416;-0.810;2023-04-24T19:11:34;3.67;3.67;3.00
57497;PMS5003;43336;51.416;-0.810;2023-04-24T19:35:48;3.00;3.00;2.67
57497;PMS5003;43336;51.416;-0.810;2023-04-24T19:38:49;2.00;2.00;1.33
57497;PMS5003;43336;51.416;-0.810;2023-04-24T19:41:49;3.33;3.33;3.00
57497;PMS5003;43336;51.416;-0.810;2023-04-24T19:44:50;6.33;6.33;4.00
57497;PMS5003;43336;51.416;-0.810;2023-04-24T19:47:51;4.67;4.67;3.00
57497;PMS5003;43336;51.416;-0.810;2023-04-24T19:50:51;4.33;4.33;3.33
57497;PMS5003;43336;51.416;-0.810;2023-04-24T19:53:52;7.67;7.67;4.33
57497;PMS5003;43336;51.416;-0.810;2023-04-24T19:56:53;4.67;4.67;3.33
57497;PMS5003;43336;51.416;-0.810;2023-04-24T19:59:54;7.67;7.33;5.33
57497;PMS5003;43336;51.416;-0.810;2023-04-24T20:02:54;7.00;7.00;4.33
57497;PMS5003;43336;51.416;-0.810;2023-04-24T20:05:55;4.67;4.67;4.00
57497;PMS5003;43336;51.416;-0.810;2023-04-24T20:08:56;5.33;5.33;3.67
57497;PMS5003;43336;51.416;-0.810;2023-04-24T20:11:57;3.33;3.33;3.00
57497;PMS5003;43336;51.416;-0.810;2023-04-24T20:14:58;6.00;6.00;5.00
57497;PMS5003;43336;51.416;-0.810;2023-04-24T20:17:58;5.33;4.33;3.33
57497;PMS5003;43336;51.416;-0.810;2023-04-24T20:20:59;3.67;3.67;2.67
57497;PMS5003;43336;51.416;-0.810;2023-04-24T20:24:00;5.00;5.00;4.00
57497;PMS5003;43336;51.416;-0.810;2023-04-24T20:27:01;7.00;5.00;4.00
57497;PMS5003;43336;51.416;-0.810;2023-04-24T20:30:03;6.00;5.67;4.00
57497;PMS5003;43336;51.416;-0.810;2023-04-24T20:33:06;4.67;4.67;3.67
57497;PMS5003;43336;51.416;-0.810;2023-04-24T20:36:07;4.33;4.33;3.67
57497;PMS5003;43336;51.416;-0.810;2023-04-24T20:39:12;3.00;3.00;2.67
57497;PMS5003;43336;51.416;-0.810;2023-04-24T20:42:12;3.33;3.33;2.33
57497;PMS5003;43336;51.416;-0.810;2023-04-24T20:45:16;4.33;4.33;3.00
57497;PMS5003;43336;51.416;-0.810;2023-04-24T20:48:17;4.67;4.67;3.67
57497;PMS5003;43336;51.416;-0.810;2023-04-24T20:51:18;6.67;6.67;4.00
57497;PMS5003;43336;51.416;-0.810;2023-04-24T20:54:19;5.00;5.00;4.00
57497;PMS5003;43336;51.416;-0.810;2023-04-24T20:57:20;3.33;3.33;3.00
57497;PMS5003;43336;51.416;-0.810;2023-04-24T21:00:20;4.00;4.00;3.00
57497;PMS5003;43336;51.416;-0.810;2023-04-24T21:03:21;6.33;6.33;4.33
57497;PMS5003;43336;51.416;-0.810;2023-04-24T21:06:22;4.67;4.67;3.33
57497;PMS5003;43336;51.416;-0.810;2023-04-24T21:09:23;3.33;3.33;2.33
57497;PMS5003;43336;51.416;-0.810;2023-04-24T21:12:24;5.00;5.00;4.00
57497;PMS5003;43336;51.416;-0.810;2023-04-24T21:15:25;4.00;4.00;4.00
57497;PMS5003;43336;51.416;-0.810;2023-04-24T21:18:26;3.33;3.33;3.00
57497;PMS5003;43336;51.416;-0.810;2023-04-24T21:21:27;5.33;5.33;3.67
57497;PMS5003;43336;51.416;-0.810;2023-04-24T21:24:27;7.00;6.33;4.00
57497;PMS5003;43336;51.416;-0.810;2023-04-24T21:27:29;6.33;6.33;4.00
57497;PMS5003;43336;51.416;-0.810;2023-04-24T21:30:30;6.00;6.00;3.67
57497;PMS5003;43336;51.416;-0.810;2023-04-24T21:33:31;2.67;2.67;2.00
57497;PMS5003;43336;51.416;-0.810;2023-04-24T21:36:31;6.00;6.00;4.33
57497;PMS5003;43336;51.416;-0.810;2023-04-24T21:39:33;4.00;4.00;3.00
57497;PMS5003;43336;51.416;-0.810;2023-04-24T21:42:33;4.00;4.00;3.00
57497;PMS5003;43336;51.416;-0.810;2023-04-24T21:45:36;3.00;3.00;2.50
57497;PMS5003;43336;51.416;-0.810;2023-04-24T21:48:36;4.67;4.67;3.67
57497;PMS5003;43336;51.416;-0.810;2023-04-24T21:51:37;3.67;3.67;2.67
57497;PMS5003;43336;51.416;-0.810;2023-04-24T21:54:38;4.00;4.00;3.00
57497;PMS5003;43336;51.416;-0.810;2023-04-24T21:57:39;4.67;4.67;3.67
57497;PMS5003;43336;51.416;-0.810;2023-04-24T22:00:40;5.33;4.33;3.33
57497;PMS5003;43336;51.416;-0.810;2023-04-24T22:03:40;5.33;5.33;2.67
57497;PMS5003;43336;51.416;-0.810;2023-04-24T22:06:41;2.33;2.33;2.00
57497;PMS5003;43336;51.416;-0.810;2023-04-24T22:09:42;4.00;4.00;3.00
57497;PMS5003;43336;51.416;-0.810;2023-04-24T22:12:42;3.67;3.67;2.00
57497;PMS5003;43336;51.416;-0.810;2023-04-24T22:15:44;3.00;3.00;2.00
57497;PMS5003;43336;51.416;-0.810;2023-04-24T22:18:44;3.33;3.33;2.33
57497;PMS5003;43336;51.416;-0.810;2023-04-24T22:21:46;3.00;3.00;3.00
57497;PMS5003;43336;51.416;-0.810;2023-04-24T22:24:46;4.00;4.00;3.00
57497;PMS5003;43336;51.416;-0.810;2023-04-24T22:27:49;3.33;3.33;3.33
57497;PMS5003;43336;51.416;-0.810;2023-04-24T22:30:50;3.00;3.00;2.00
57497;PMS5003;43336;51.416;-0.810;2023-04-24T22:33:51;3.00;3.00;2.33
57497;PMS5003;43336;51.416;-0.810;2023-04-24T22:36:52;2.00;2.00;1.00
57497;PMS5003;43336;51.416;-0.810;2023-04-24T22:39:54;3.00;3.00;2.00
57497;PMS5003;43336;51.416;-0.810;2023-04-24T22:42:55;1.67;1.67;0.00
57497;PMS5003;43336;51.416;-0.810;2023-04-24T22:45:56;3.00;3.00;2.00
57497;PMS5003;43336;51.416;-0.810;2023-04-24T22:48:58;3.67;3.67;2.33
57497;PMS5003;43336;51.416;-0.810;2023-04-24T22:51:59;4.00;4.00;3.00
57497;PMS5003;43336;51.416;-0.810;2023-04-24T22:55:00;3.00;3.00;2.00
57497;PMS5003;43336;51.416;-0.810;2023-04-24T22:58:01;4.00;4.00;3.00
57497;PMS5003;43336;51.416;-0.810;2023-04-24T23:01:01;2.33;2.33;1.67
57497;PMS5003;43336;51.416;-0.810;2023-04-24T23:04:03;2.67;2.67;2.00
57497;PMS5003;43336;51.416;-0.810;2023-04-24T23:07:04;2.33;2.33;1.67
57497;PMS5003;43336;51.416;-0.810;2023-04-24T23:10:05;2.67;2.67;2.00
57497;PMS5003;43336;51.416;-0.810;2023-04-24T23:13:06;3.33;3.33;2.33
57497;PMS5003;43336;51.416;-0.810;2023-04-24T23:16:07;2.67;2.67;2.00
57497;PMS5003;43336;51.416;-0.810;2023-04-24T23:19:08;4.00;4.00;2.67
57497;PMS5003;43336;51.416;-0.810;2023-04-24T23:22:09;2.67;2.67;2.00
57497;PMS5003;43336;51.416;-0.810;2023-04-24T23:25:10;3.00;3.00;2.00
57497;PMS5003;43336;51.416;-0.810;2023-04-24T23:28:11;2.33;2.33;2.33
57497;PMS5003;43336;51.416;-0.810;2023-04-24T23:31:11;4.33;3.33;2.00
57497;PMS5003;43336;51.416;-0.810;2023-04-24T23:34:12;4.00;4.00;3.67
57497;PMS5003;43336;51.416;-0.810;2023-04-24T23:37:13;2.33;2.33;2.00